createdAt,value
2019-05-23T00:01:09.180Z,12.57
2019-05-23T00:04:06.539Z,12.50
2019-05-23T00:06:57.860Z,12.41
2019-05-23T00:09:47.674Z,12.41
2019-05-23T00:12:45.827Z,12.42
2019-05-23T00:15:27.396Z,12.42
2019-05-23T00:17:59.254Z,12.44
2019-05-23T00:20:32.352Z,12.36
2019-05-23T00:23:04.489Z,12.20
2019-05-23T00:25:36.769Z,12.17
2019-05-23T00:28:10.798Z,12.18
2019-05-23T00:30:54.456Z,12.21
2019-05-23T00:33:27.995Z,12.14
2019-05-23T00:36:00.407Z,12.20
2019-05-23T00:38:32.964Z,12.28
2019-05-23T00:41:04.444Z,12.16
2019-05-23T00:43:36.197Z,12.17
2019-05-23T00:46:07.228Z,12.07
2019-05-23T00:48:40.495Z,12.11
2019-05-23T00:51:13.356Z,11.97
2019-05-23T00:53:44.813Z,11.92
2019-05-23T00:56:17.564Z,11.94
2019-05-23T00:58:50.181Z,11.98
2019-05-23T01:01:22.576Z,11.97
2019-05-23T01:03:54.802Z,12.05
2019-05-23T01:06:25.951Z,12.14
2019-05-23T01:08:58.431Z,11.99
2019-05-23T01:11:29.462Z,11.98
2019-05-23T01:14:00.535Z,11.99
2019-05-23T01:16:32.847Z,11.97
2019-05-23T01:19:04.716Z,12.03
2019-05-23T01:21:55.007Z,11.92
2019-05-23T01:24:34.298Z,11.83
2019-05-23T01:27:07.403Z,11.80
2019-05-23T01:29:49.557Z,11.92
2019-05-23T01:32:37.692Z,11.92
2019-05-23T01:35:10.093Z,11.94
2019-05-23T01:37:41.338Z,11.82
2019-05-23T01:40:13.560Z,11.75
2019-05-23T01:42:46.273Z,11.67
2019-05-23T01:45:19.371Z,11.73
2019-05-23T01:47:51.066Z,11.71
2019-05-23T01:50:26.113Z,11.58
2019-05-23T01:52:57.750Z,11.58
2019-05-23T01:55:29.293Z,11.62
2019-05-23T01:58:00.385Z,11.64
2019-05-23T02:00:33.321Z,11.64
2019-05-23T02:03:04.992Z,11.66
2019-05-23T02:05:36.868Z,11.64
2019-05-23T02:08:11.801Z,11.69
2019-05-23T02:10:43.526Z,11.55
2019-05-23T02:13:14.818Z,11.62
2019-05-23T02:15:47.072Z,11.55
2019-05-23T02:18:18.817Z,11.51
2019-05-23T02:20:50.764Z,11.53
2019-05-23T02:23:22.610Z,11.53
2019-05-23T02:25:54.348Z,11.45
2019-05-23T02:28:25.955Z,11.51
2019-05-23T02:30:58.060Z,11.50
2019-05-23T02:33:29.370Z,11.39
2019-05-23T02:36:00.822Z,11.38
2019-05-23T02:38:49.787Z,11.55
2019-05-23T02:41:29.692Z,11.28
2019-05-23T02:44:05.344Z,11.23
2019-05-23T02:46:45.357Z,11.37
2019-05-23T02:49:20.252Z,11.46
2019-05-23T02:51:52.235Z,11.42
2019-05-23T02:54:27.135Z,11.25
2019-05-23T02:57:03.024Z,11.40
2019-05-23T02:59:53.002Z,11.31
2019-05-23T03:02:54.549Z,11.22
2019-05-23T03:05:27.151Z,11.36
2019-05-23T03:08:00.565Z,11.24
2019-05-23T03:11:22.295Z,11.21
2019-05-23T03:13:53.383Z,11.23
2019-05-23T03:16:27.459Z,11.21
2019-05-23T03:19:03.282Z,11.15
2019-05-23T03:21:35.958Z,11.08
2019-05-23T03:24:07.561Z,11.19
2019-05-23T03:27:07.883Z,11.30
2019-05-23T03:29:39.551Z,11.25
2019-05-23T03:32:22.132Z,11.12
2019-05-23T03:34:59.805Z,11.15
2019-05-23T03:37:31.150Z,11.13
2019-05-23T03:40:03.895Z,11.03
2019-05-23T03:42:36.403Z,11.07
2019-05-23T03:45:10.504Z,11.14
2019-05-23T03:47:41.603Z,11.20
2019-05-23T03:50:14.446Z,11.21
2019-05-23T03:52:46.097Z,11.15
2019-05-23T03:55:18.784Z,11.05
2019-05-23T03:57:50.617Z,10.94
2019-05-23T04:00:24.803Z,10.98
2019-05-23T04:02:57.423Z,11.13
2019-05-23T04:05:29.240Z,11.08
2019-05-23T04:08:00.519Z,11.04
2019-05-23T04:10:31.890Z,11.18
2019-05-23T04:13:03.782Z,11.17
2019-05-23T04:15:35.364Z,11.10
2019-05-23T04:18:06.533Z,11.02
2019-05-23T04:20:37.908Z,11.03
2019-05-23T04:23:09.526Z,10.91
2019-05-23T04:25:41.722Z,11.14
2019-05-23T04:28:13.054Z,11.12
2019-05-23T04:30:45.032Z,11.09
2019-05-23T04:33:16.103Z,11.09
2019-05-23T04:35:48.107Z,11.17
2019-05-23T04:38:20.482Z,11.18
2019-05-23T04:40:51.705Z,11.20
2019-05-23T04:43:22.870Z,11.18
2019-05-23T04:45:54.120Z,11.18
2019-05-23T04:48:25.602Z,11.29
2019-05-23T04:50:59.905Z,11.50
2019-05-23T04:53:30.626Z,11.45
2019-05-23T04:56:03.151Z,11.53
2019-05-23T04:58:36.390Z,11.50
2019-05-23T05:01:10.089Z,11.47
2019-05-23T05:03:44.670Z,11.55
2019-05-23T05:06:16.227Z,11.67
2019-05-23T05:08:48.308Z,11.72
2019-05-23T05:11:20.096Z,11.65
2019-05-23T05:13:51.401Z,11.67
2019-05-23T05:16:22.847Z,11.77
2019-05-23T05:18:55.302Z,11.84
2019-05-23T05:21:26.765Z,11.86
2019-05-23T05:23:58.154Z,11.87
2019-05-23T05:26:29.309Z,11.97
2019-05-23T05:29:00.509Z,11.92
2019-05-23T05:31:31.658Z,12.03
2019-05-23T05:34:02.758Z,11.98
2019-05-23T05:36:34.188Z,12.08
2019-05-23T05:39:08.378Z,12.02
2019-05-23T05:41:39.446Z,12.14
2019-05-23T05:44:11.757Z,12.22
2019-05-23T05:46:43.784Z,12.31
2019-05-23T05:49:15.828Z,12.42
2019-05-23T05:51:46.840Z,12.38
2019-05-23T05:54:18.749Z,12.41
2019-05-23T05:56:49.796Z,12.46
2019-05-23T05:59:21.061Z,12.54
2019-05-23T06:01:53.433Z,12.60
2019-05-23T06:04:24.610Z,12.63
2019-05-23T06:07:03.481Z,12.73
2019-05-23T06:09:35.053Z,12.80
2019-05-23T06:12:06.672Z,12.88
2019-05-23T06:14:38.067Z,12.99
2019-05-23T06:17:12.650Z,13.01
2019-05-23T06:19:43.965Z,13.19
2019-05-23T06:22:15.403Z,13.32
2019-05-23T06:24:51.644Z,13.45
2019-05-23T06:27:22.158Z,13.50
2019-05-23T06:29:53.725Z,13.62
2019-05-23T06:32:26.585Z,13.65
2019-05-23T06:34:58.455Z,13.78
2019-05-23T06:37:34.030Z,13.88
2019-05-23T06:40:03.539Z,13.97
2019-05-23T06:42:34.636Z,14.02
2019-05-23T06:45:07.500Z,14.00
2019-05-23T06:47:40.658Z,14.16
2019-05-23T06:50:17.613Z,14.23
2019-05-23T06:52:48.840Z,14.33
2019-05-23T06:55:20.094Z,14.38
2019-05-23T06:57:51.252Z,14.47
2019-05-23T07:00:27.338Z,14.58
2019-05-23T07:02:58.467Z,14.67
2019-05-23T07:05:35.776Z,14.72
2019-05-23T07:08:08.439Z,14.83
2019-05-23T07:10:42.543Z,14.93
2019-05-23T07:13:13.962Z,15.00
2019-05-23T07:15:45.915Z,15.04
2019-05-23T07:18:17.107Z,15.17
2019-05-23T07:20:48.312Z,15.26
2019-05-23T07:23:19.447Z,15.51
2019-05-23T07:25:50.545Z,15.60
2019-05-23T07:28:21.715Z,15.70
2019-05-23T07:30:54.248Z,15.77
2019-05-23T07:33:25.529Z,15.78
2019-05-23T07:35:56.928Z,15.95
2019-05-23T07:38:28.057Z,16.07
2019-05-23T07:41:00.745Z,16.11
2019-05-23T07:43:31.739Z,16.21
2019-05-23T07:46:03.382Z,16.35
2019-05-23T07:48:53.578Z,16.43
2019-05-23T07:51:24.836Z,16.54
2019-05-23T07:54:03.598Z,16.71
2019-05-23T07:56:35.899Z,16.84
2019-05-23T07:59:07.317Z,16.92
2019-05-23T08:01:40.543Z,17.08
2019-05-23T08:04:21.114Z,17.23
2019-05-23T08:06:48.973Z,17.38
2019-05-23T08:09:19.995Z,17.48
2019-05-23T08:11:51.139Z,17.57
2019-05-23T08:14:22.219Z,17.70
2019-05-23T08:16:53.833Z,17.75
2019-05-23T08:19:24.875Z,17.85
2019-05-23T08:21:56.139Z,17.81
2019-05-23T08:24:27.157Z,17.89
2019-05-23T08:26:59.257Z,17.96
2019-05-23T08:29:31.469Z,18.11
2019-05-23T08:32:02.846Z,18.13
2019-05-23T08:34:41.450Z,18.27
2019-05-23T08:37:07.959Z,18.32
2019-05-23T08:39:39.027Z,18.30
2019-05-23T08:42:10.526Z,18.33
2019-05-23T08:44:42.211Z,18.30
2019-05-23T08:47:14.161Z,18.45
2019-05-23T08:49:45.311Z,18.26
2019-05-23T08:52:17.374Z,18.29
2019-05-23T08:54:49.292Z,18.35
2019-05-23T08:57:21.064Z,18.33
2019-05-23T08:59:52.343Z,18.38
2019-05-23T09:02:23.879Z,18.41
2019-05-23T09:05:04.179Z,18.57
2019-05-23T09:07:28.706Z,18.55
2019-05-23T09:09:59.740Z,18.71
2019-05-23T09:12:30.761Z,18.80
2019-05-23T09:15:01.959Z,18.86
2019-05-23T09:17:49.760Z,18.92
2019-05-23T09:20:06.516Z,18.98
2019-05-23T09:22:37.681Z,18.98
2019-05-23T09:25:09.813Z,19.06
2019-05-23T09:27:40.976Z,18.94
2019-05-23T09:30:12.983Z,18.78
2019-05-23T09:32:44.433Z,18.78
2019-05-23T09:35:21.114Z,18.91
2019-05-23T09:37:48.751Z,18.92
2019-05-23T09:40:20.043Z,19.00
2019-05-23T09:42:51.241Z,19.04
2019-05-23T09:45:22.483Z,18.97
2019-05-23T09:47:53.645Z,19.00
2019-05-23T09:50:26.652Z,19.04
2019-05-23T09:52:57.942Z,19.15
2019-05-23T09:55:29.390Z,19.12
2019-05-23T09:58:00.436Z,19.19
2019-05-23T10:00:33.113Z,19.21
2019-05-23T10:03:05.783Z,19.28
2019-05-23T10:05:43.498Z,19.28
2019-05-23T10:08:10.099Z,19.29
2019-05-23T10:10:41.504Z,19.34
2019-05-23T10:13:12.787Z,19.17
2019-05-23T10:15:50.486Z,19.09
2019-05-23T10:18:22.124Z,19.15
2019-05-23T10:20:53.187Z,19.22
2019-05-23T10:23:24.325Z,19.27
2019-05-23T10:25:55.444Z,19.23
2019-05-23T10:28:26.600Z,19.28
2019-05-23T10:30:57.809Z,19.34
2019-05-23T10:33:29.668Z,19.30
2019-05-23T10:36:01.458Z,19.41
2019-05-23T10:38:32.792Z,19.58
2019-05-23T10:41:04.557Z,19.54
2019-05-23T10:43:35.605Z,19.55
2019-05-23T10:46:06.764Z,19.53
2019-05-23T10:48:38.477Z,19.57
2019-05-23T10:51:10.506Z,19.66
2019-05-23T10:53:41.501Z,19.65
2019-05-23T10:56:12.857Z,19.66
2019-05-23T10:58:44.110Z,19.68
2019-05-23T11:01:16.573Z,19.63
2019-05-23T11:03:47.649Z,19.79
2019-05-23T11:06:19.213Z,19.88
2019-05-23T11:08:50.374Z,19.91
2019-05-23T11:11:21.575Z,19.99
2019-05-23T11:13:53.120Z,19.85
2019-05-23T11:16:24.215Z,19.89
2019-05-23T11:18:56.074Z,19.86
2019-05-23T11:21:27.246Z,19.85
2019-05-23T11:23:58.533Z,19.89
2019-05-23T11:26:29.623Z,19.98
2019-05-23T11:29:00.706Z,19.95
2019-05-23T11:31:31.720Z,19.86
2019-05-23T11:34:02.862Z,19.94
2019-05-23T11:36:36.694Z,19.95
2019-05-23T11:39:09.785Z,20.00
2019-05-23T11:41:40.931Z,20.03
2019-05-23T11:44:11.980Z,20.02
2019-05-23T11:46:43.789Z,20.04
2019-05-23T11:49:15.112Z,20.17
2019-05-23T11:51:47.275Z,20.21
2019-05-23T11:54:18.723Z,20.30
2019-05-23T11:56:50.397Z,20.27
2019-05-23T11:59:21.576Z,20.24
2019-05-23T12:02:13.855Z,20.22
2019-05-23T12:04:45.931Z,20.19
2019-05-23T12:07:21.478Z,20.22
2019-05-23T12:09:52.538Z,20.21
2019-05-23T12:12:23.820Z,20.24
2019-05-23T12:14:55.894Z,20.17
2019-05-23T12:17:30.339Z,20.23
2019-05-23T12:20:01.524Z,20.42
2019-05-23T12:22:32.685Z,20.37
2019-05-23T12:25:21.151Z,20.39
2019-05-23T12:27:38.262Z,20.29
2019-05-23T12:30:13.406Z,20.25
2019-05-23T12:32:44.498Z,20.20
2019-05-23T12:35:15.962Z,20.18
2019-05-23T12:37:47.893Z,20.11
2019-05-23T12:40:19.191Z,20.27
2019-05-23T12:42:50.197Z,20.25
2019-05-23T12:45:21.686Z,20.14
2019-05-23T12:48:00.325Z,20.14
2019-05-23T12:50:36.667Z,20.23
2019-05-23T12:53:09.611Z,20.25
2019-05-23T12:55:41.095Z,20.17
2019-05-23T12:58:12.209Z,20.25
2019-05-23T13:00:49.692Z,20.43
2019-05-23T13:03:20.830Z,20.28
2019-05-23T13:05:52.246Z,20.29
2019-05-23T13:08:24.080Z,20.40
2019-05-23T13:10:55.306Z,20.35
2019-05-23T13:13:26.842Z,20.25
2019-05-23T13:15:57.998Z,20.43
2019-05-23T13:18:29.222Z,20.31
2019-05-23T13:21:00.459Z,20.28
2019-05-23T13:23:31.727Z,20.32
2019-05-23T13:26:03.203Z,20.25
2019-05-23T13:28:34.370Z,20.34
2019-05-23T13:31:05.481Z,20.36
2019-05-23T13:33:36.749Z,20.43
2019-05-23T13:36:08.086Z,20.45
2019-05-23T13:38:39.434Z,20.40
2019-05-23T13:41:10.741Z,20.36
2019-05-23T13:43:42.093Z,20.41
2019-05-23T13:46:14.220Z,20.36
2019-05-23T13:48:45.541Z,20.39
2019-05-23T13:51:16.626Z,20.52
2019-05-23T13:53:49.766Z,20.51
2019-05-23T13:56:21.116Z,20.46
2019-05-23T13:58:52.211Z,20.52
2019-05-23T14:01:23.212Z,20.59
2019-05-23T14:03:54.328Z,20.52
2019-05-23T14:06:25.719Z,20.68
2019-05-23T14:08:56.979Z,20.58
2019-05-23T14:11:28.160Z,20.46
2019-05-23T14:14:01.773Z,20.51
2019-05-23T14:16:35.230Z,20.52
2019-05-23T14:19:06.554Z,20.45
2019-05-23T14:21:37.696Z,20.45
2019-05-23T14:24:08.858Z,20.47
2019-05-23T14:26:46.539Z,20.52
2019-05-23T14:29:18.490Z,20.54
2019-05-23T14:31:58.694Z,20.58
2019-05-23T14:34:29.908Z,20.47
2019-05-23T14:37:10.017Z,20.42
2019-05-23T14:39:49.491Z,20.36
2019-05-23T14:42:45.421Z,20.32
2019-05-23T14:45:31.856Z,20.30
2019-05-23T14:48:22.114Z,20.34
2019-05-23T14:51:11.152Z,20.40
2019-05-23T14:53:43.813Z,20.40
2019-05-23T14:56:15.185Z,20.36
2019-05-23T14:58:46.256Z,20.38
2019-05-23T15:01:19.157Z,20.37
2019-05-23T15:03:50.944Z,20.31
2019-05-23T15:06:22.112Z,20.30
2019-05-23T15:08:54.319Z,20.44
2019-05-23T15:11:25.473Z,20.33
2019-05-23T15:13:56.646Z,20.38
2019-05-23T15:16:28.024Z,20.40
2019-05-23T15:18:59.366Z,20.29
2019-05-23T15:21:30.671Z,20.37
2019-05-23T15:24:02.067Z,20.38
2019-05-23T15:26:33.401Z,20.51
2019-05-23T15:29:04.870Z,20.34
2019-05-23T15:31:35.922Z,20.32
2019-05-23T15:34:07.454Z,20.33
2019-05-23T15:36:38.608Z,20.30
2019-05-23T15:39:10.922Z,20.32
2019-05-23T15:41:42.008Z,20.33
2019-05-23T15:44:25.674Z,20.30
2019-05-23T15:46:46.067Z,20.32
2019-05-23T15:49:17.354Z,20.24
2019-05-23T15:51:55.479Z,20.25
2019-05-23T15:54:35.200Z,20.37
2019-05-23T15:57:15.468Z,20.28
2019-05-23T15:59:50.879Z,20.28
2019-05-23T16:02:24.567Z,20.33
2019-05-23T16:04:57.623Z,20.32
2019-05-23T16:07:29.364Z,20.29
2019-05-23T16:10:00.906Z,20.21
2019-05-23T16:12:32.110Z,20.29
2019-05-23T16:15:03.282Z,20.23
2019-05-23T16:17:34.772Z,20.24
2019-05-23T16:20:06.835Z,20.23
2019-05-23T16:22:38.038Z,20.21
2019-05-23T16:25:09.775Z,20.23
2019-05-23T16:27:41.070Z,20.11
2019-05-23T16:30:12.552Z,20.22
2019-05-23T16:32:46.528Z,20.22
2019-05-23T16:35:16.546Z,20.12
2019-05-23T16:37:47.746Z,20.15
2019-05-23T16:40:19.630Z,20.08
2019-05-23T16:42:50.743Z,20.08
2019-05-23T16:45:21.893Z,20.09
2019-05-23T16:47:53.510Z,20.10
2019-05-23T16:50:24.673Z,20.11
2019-05-23T16:52:55.974Z,20.09
2019-05-23T16:55:43.368Z,20.02
2019-05-23T16:58:21.580Z,20.07
2019-05-23T17:01:24.590Z,20.06
2019-05-23T17:04:02.711Z,20.11
2019-05-23T17:06:49.571Z,20.05
2019-05-23T17:09:36.448Z,20.00
2019-05-23T17:12:29.618Z,19.94
2019-05-23T17:15:18.596Z,19.95
2019-05-23T17:18:02.777Z,19.91
2019-05-23T17:20:55.869Z,19.94
2019-05-23T17:23:43.200Z,19.91
2019-05-23T17:26:49.472Z,19.87
2019-05-23T17:29:29.625Z,19.85
2019-05-23T17:32:01.873Z,19.77
2019-05-23T17:34:33.159Z,19.84
2019-05-23T17:37:04.862Z,19.78
2019-05-23T17:39:37.215Z,19.80
2019-05-23T17:42:08.216Z,19.76
2019-05-23T17:44:39.499Z,19.76
2019-05-23T17:47:10.645Z,19.74
2019-05-23T17:49:41.859Z,19.66
2019-05-23T17:52:13.925Z,19.63
2019-05-23T17:54:45.164Z,19.64
2019-05-23T17:57:16.617Z,19.61
2019-05-23T17:59:47.719Z,19.62
2019-05-23T18:02:20.514Z,19.57
2019-05-23T18:04:51.991Z,19.57
2019-05-23T18:07:23.365Z,19.54
2019-05-23T18:09:54.613Z,19.50
2019-05-23T18:12:25.714Z,19.47
2019-05-23T18:14:56.914Z,19.39
2019-05-23T18:17:29.338Z,19.39
2019-05-23T18:20:00.464Z,19.38
2019-05-23T18:22:32.433Z,19.36
2019-05-23T18:25:05.578Z,19.31
2019-05-23T18:27:36.666Z,19.22
2019-05-23T18:30:12.214Z,19.22
2019-05-23T18:32:43.476Z,19.17
2019-05-23T18:35:15.993Z,19.17
2019-05-23T18:37:47.617Z,19.09
2019-05-23T18:40:19.797Z,19.10
2019-05-23T18:42:52.124Z,19.04
2019-05-23T18:45:24.336Z,19.02
2019-05-23T18:47:55.443Z,18.95
2019-05-23T18:50:27.423Z,18.93
2019-05-23T18:52:58.671Z,18.89
2019-05-23T18:55:29.835Z,18.82
2019-05-23T18:58:00.979Z,18.75
2019-05-23T19:01:13.133Z,18.69
2019-05-23T19:03:44.755Z,18.74
2019-05-23T19:06:17.197Z,18.63
2019-05-23T19:08:48.622Z,18.60
2019-05-23T19:11:22.020Z,18.58
2019-05-23T19:13:53.223Z,18.55
2019-05-23T19:16:24.691Z,18.57
2019-05-23T19:18:55.855Z,18.49
2019-05-23T19:21:29.258Z,18.42
2019-05-23T19:24:00.456Z,18.45
2019-05-23T19:26:32.537Z,18.42
2019-05-23T19:29:04.001Z,18.38
2019-05-23T19:31:35.210Z,18.32
2019-05-23T19:34:06.622Z,18.26
2019-05-23T19:36:38.207Z,18.25
2019-05-23T19:39:10.104Z,18.22
2019-05-23T19:41:41.586Z,18.19
2019-05-23T19:44:12.722Z,18.18
2019-05-23T19:46:44.747Z,18.10
2019-05-23T19:49:16.243Z,18.07
2019-05-23T19:51:47.471Z,18.02
2019-05-23T19:54:18.990Z,17.95
2019-05-23T19:56:50.218Z,17.96
2019-05-23T19:59:21.486Z,17.88
2019-05-23T20:02:15.582Z,17.84
2019-05-23T20:04:56.570Z,17.79
2019-05-23T20:07:28.208Z,17.75
2019-05-23T20:09:59.320Z,17.68
2019-05-23T20:12:30.665Z,17.60
2019-05-23T20:15:01.803Z,17.59
2019-05-23T20:17:34.283Z,17.55
2019-05-23T20:20:05.777Z,17.51
2019-05-23T20:22:37.003Z,17.50
2019-05-23T20:25:08.636Z,17.47
2019-05-23T20:27:39.739Z,17.39
2019-05-23T20:30:14.844Z,17.32
2019-05-23T20:32:46.241Z,17.33
2019-05-23T20:35:17.561Z,17.33
2019-05-23T20:37:48.637Z,17.26
2019-05-23T20:40:20.494Z,17.25
2019-05-23T20:42:51.672Z,17.24
2019-05-23T20:45:22.964Z,17.20
2019-05-23T20:47:54.198Z,17.15
2019-05-23T20:50:25.558Z,17.09
2019-05-23T20:52:56.632Z,16.99
2019-05-23T20:55:27.980Z,16.96
2019-05-23T20:57:59.293Z,16.93
2019-05-23T21:00:42.499Z,16.90
2019-05-23T21:03:13.825Z,16.80
2019-05-23T21:05:45.429Z,16.76
2019-05-23T21:08:16.705Z,16.74
2019-05-23T21:10:50.243Z,16.68
2019-05-23T21:13:21.766Z,16.60
2019-05-23T21:15:54.237Z,16.58
2019-05-23T21:18:25.631Z,16.55
2019-05-23T21:20:56.970Z,16.55
2019-05-23T21:23:29.084Z,16.54
2019-05-23T21:26:04.369Z,16.56
2019-05-23T21:28:36.464Z,16.56
2019-05-23T21:31:20.605Z,16.54
2019-05-23T21:33:51.744Z,16.53
2019-05-23T21:36:22.882Z,16.50
2019-05-23T21:38:54.939Z,16.39
2019-05-23T21:41:25.936Z,16.31
2019-05-23T21:43:58.573Z,16.34
2019-05-23T21:46:29.763Z,16.28
2019-05-23T21:49:00.855Z,16.13
2019-05-23T21:51:31.862Z,16.06
2019-05-23T21:54:04.222Z,16.06
2019-05-23T21:56:35.438Z,15.98
2019-05-23T21:59:06.783Z,15.99
2019-05-23T22:01:56.020Z,15.90
2019-05-23T22:04:33.104Z,15.86
2019-05-23T22:07:08.610Z,15.71
2019-05-23T22:09:40.549Z,15.74
2019-05-23T22:12:14.499Z,15.71
2019-05-23T22:14:46.538Z,15.59
2019-05-23T22:17:19.656Z,15.58
2019-05-23T22:19:51.098Z,15.61
2019-05-23T22:22:22.174Z,15.61
2019-05-23T22:24:53.372Z,15.58
2019-05-23T22:27:24.517Z,15.49
2019-05-23T22:29:55.675Z,15.41
2019-05-23T22:32:28.081Z,15.35
2019-05-23T22:35:13.301Z,15.33
2019-05-23T22:37:44.583Z,15.27
2019-05-23T22:40:16.001Z,15.24
2019-05-23T22:42:47.060Z,15.13
2019-05-23T22:45:20.690Z,15.14
2019-05-23T22:47:51.758Z,15.11
2019-05-23T22:50:22.946Z,15.05
2019-05-23T22:52:55.183Z,15.05
2019-05-23T22:55:26.717Z,15.07
2019-05-23T22:57:57.718Z,15.01
2019-05-23T23:00:33.894Z,15.01
2019-05-23T23:03:05.048Z,15.00
2019-05-23T23:05:36.100Z,14.97
2019-05-23T23:08:07.775Z,14.92
2019-05-23T23:10:39.367Z,14.88
2019-05-23T23:13:10.381Z,14.91
2019-05-23T23:15:41.609Z,14.91
2019-05-23T23:18:12.615Z,14.95
2019-05-23T23:20:45.854Z,14.89
2019-05-23T23:23:16.437Z,14.81
2019-05-23T23:25:47.821Z,14.82
2019-05-23T23:28:18.819Z,14.81
2019-05-23T23:30:51.406Z,14.78
2019-05-23T23:33:22.555Z,14.73
2019-05-23T23:35:53.676Z,14.75
2019-05-23T23:38:24.810Z,14.70
2019-05-23T23:40:56.147Z,14.65
2019-05-23T23:43:27.144Z,14.64
2019-05-23T23:46:16.074Z,14.66
2019-05-23T23:49:04.941Z,14.71
2019-05-23T23:51:53.924Z,14.55
2019-05-23T23:54:42.721Z,14.55
2019-05-23T23:57:31.436Z,14.48
